^^
Datos históricos de la estación: Murcia-Puente Tocinos
Diario Informe para Julio 18, 2019 Unidades:  Ambas    Ingés   Métrico
Diario Semanal Mensual Anual
  Máxima: Mínima: Promedio:
Temperatura: 99 °F /  37.2 °C 72.7 °F /  22.6 °C 84.6 °F /  29.2 °C
Punto de rocio: 72.7 °F /  22.6 °C 52.3 °F /  11.3 °C 63.7 °F /  17.6 °C
Humedad: 87% 21.6% 53%
Velocidad viento: 11.2mph /  18km/h - 4.9mph /  7.9km/h
Racha viento: 21mph /  33.8km/h - -
Viento- - Este
Presión: 29.9 in /  1012.0 hPa 29.8 in /  1008.0 hPa -
Precipitación: 0 in /  0.0 mm    
 
 
Tabla de datos para Julio 18, 2019
Hora Temperatura Punto de rocio Presión Viento Velocidad viento Racha viento Humedad Intensidad lluvia(por hora) Nubes
00:04 79 °F /  26.1 °C 70.9 °F /  21.6 °C 29.9in /  1011.9hPa NNE 5.4mph /  8.7km/h 8.1mph /  13km/h 76.1% 0in /  0.0mm
00:09 78.8 °F /  26 °C 70.9 °F /  21.6 °C 29.9in /  1011.9hPa NNE 5.2mph /  8.4km/h 7mph /  11.3km/h 77% 0in /  0.0mm
00:14 78.6 °F /  25.9 °C 71.1 °F /  21.7 °C 29.9in /  1011.9hPa NNE 4.7mph /  7.6km/h 8.1mph /  13km/h 77.8% 0in /  0.0mm
00:19 78.4 °F /  25.8 °C 71.2 °F /  21.8 °C 29.9in /  1011.9hPa NNE 4.7mph /  7.6km/h 8mph /  12.9km/h 78.6% 0in /  0.0mm
00:24 78.4 °F /  25.8 °C 71.6 °F /  22 °C 29.9in /  1011.8hPa NNE 4.7mph /  7.6km/h 8.7mph /  14km/h 79.3% 0in /  0.0mm
00:29 78.3 °F /  25.7 °C 71.8 °F /  22.1 °C 29.9in /  1011.8hPa NNE 4.8mph /  7.8km/h 9.7mph /  15.6km/h 80.5% 0in /  0.0mm
00:34 78.3 °F /  25.7 °C 72.1 °F /  22.3 °C 29.9in /  1011.8hPa NE 5.2mph /  8.4km/h 10mph /  16.1km/h 81.5% 0in /  0.0mm
00:39 78.1 °F /  25.6 °C 72.3 °F /  22.4 °C 29.9in /  1011.8hPa NE 5.3mph /  8.5km/h 9mph /  14.5km/h 82.4% 0in /  0.0mm
00:44 78.1 °F /  25.6 °C 72.3 °F /  22.4 °C 29.9in /  1011.8hPa NE 5.4mph /  8.7km/h 8.1mph /  13km/h 83% 0in /  0.0mm
00:49 77.7 °F /  25.4 °C 72.5 °F /  22.5 °C 29.9in /  1012.0hPa NNE 5.1mph /  8.2km/h 8.1mph /  13km/h 83.9% 0in /  0.0mm
00:54 77.7 °F /  25.4 °C 72.5 °F /  22.5 °C 29.9in /  1012.0hPa NNE 4.3mph /  6.9km/h 7mph /  11.3km/h 84.2% 0in /  0.0mm
00:59 77.5 °F /  25.3 °C 72.7 °F /  22.6 °C 29.9in /  1012.0hPa NNE 4.1mph /  6.6km/h 7mph /  11.3km/h 85% 0in /  0.0mm
01:04 77.5 °F /  25.3 °C 72.7 °F /  22.6 °C 29.9in /  1012.0hPa NE 3.6mph /  5.8km/h 6mph /  9.7km/h 85% 0in /  0.0mm
01:09 77.4 °F /  25.2 °C 72.5 °F /  22.5 °C 29.9in /  1011.9hPa NE 3.6mph /  5.8km/h 6mph /  9.7km/h 85% 0in /  0.0mm
01:14 77.4 °F /  25.2 °C 72.7 °F /  22.6 °C 29.9in /  1011.9hPa NE 3.6mph /  5.8km/h 6.2mph /  10km/h 85.9% 0in /  0.0mm
01:19 77.2 °F /  25.1 °C 72.7 °F /  22.6 °C 29.9in /  1012.0hPa ENE 3.7mph /  6km/h 6mph /  9.7km/h 86% 0in /  0.0mm
01:24 77.2 °F /  25.1 °C 72.7 °F /  22.6 °C 29.9in /  1012.0hPa NNE 4mph /  6.5km/h 6mph /  9.7km/h 86% 0in /  0.0mm
01:29 77 °F /  25 °C 72.5 °F /  22.5 °C 29.9in /  1012.0hPa NNE 3.7mph /  6km/h 5.9mph /  9.5km/h 86% 0in /  0.0mm
01:34 76.8 °F /  24.9 °C 72.3 °F /  22.4 °C 29.9in /  1012.0hPa NE 3.1mph /  5km/h 6mph /  9.7km/h 86% 0in /  0.0mm
01:39 76.6 °F /  24.8 °C 72.1 °F /  22.3 °C 29.9in /  1011.9hPa NNE 3.1mph /  5km/h 6mph /  9.7km/h 86% 0in /  0.0mm
01:44 76.6 °F /  24.8 °C 72.1 °F /  22.3 °C 29.9in /  1011.9hPa NE 3.1mph /  5km/h 6mph /  9.7km/h 86.1% 0in /  0.0mm
01:49 76.6 °F /  24.8 °C 72.1 °F /  22.3 °C 29.9in /  1012.0hPa North 2.9mph /  4.7km/h 5.2mph /  8.4km/h 86.4% 0in /  0.0mm
01:54 76.6 °F /  24.8 °C 72.5 °F /  22.5 °C 29.9in /  1012.0hPa NNO 2.4mph /  3.9km/h 5mph /  8km/h 87% 0in /  0.0mm
01:59 76.6 °F /  24.8 °C 72.5 °F /  22.5 °C 29.9in /  1012.0hPa North 2.2mph /  3.6km/h 5.2mph /  8.4km/h 87% 0in /  0.0mm
02:04 76.6 °F /  24.8 °C 72.5 °F /  22.5 °C 29.9in /  1012.0hPa North 2mph /  3.2km/h 5mph /  8km/h 87% 0in /  0.0mm
02:09 76.6 °F /  24.8 °C 72.5 °F /  22.5 °C 29.9in /  1011.8hPa NNE 2.1mph /  3.4km/h 5mph /  8km/h 87% 0in /  0.0mm
02:14 76.5 °F /  24.7 °C 72.3 °F /  22.4 °C 29.9in /  1011.8hPa NNE 2.4mph /  3.9km/h 5mph /  8km/h 87% 0in /  0.0mm
02:19 76.5 °F /  24.7 °C 72.3 °F /  22.4 °C 29.9in /  1011.8hPa NNE 2.5mph /  4.1km/h 5mph /  8km/h 87% 0in /  0.0mm
02:24 76.3 °F /  24.6 °C 72.1 °F /  22.3 °C 29.9in /  1011.7hPa NNE 2.9mph /  4.7km/h 5.2mph /  8.4km/h 87% 0in /  0.0mm
02:29 76.3 °F /  24.6 °C 72 °F /  22.2 °C 29.9in /  1011.7hPa NE 2.9mph /  4.7km/h 5.2mph /  8.4km/h 86.6% 0in /  0.0mm
02:34 76.1 °F /  24.5 °C 71.6 °F /  22 °C 29.9in /  1011.7hPa NNE 2.9mph /  4.7km/h 5mph /  8km/h 86% 0in /  0.0mm
02:39 75.9 °F /  24.4 °C 71.4 °F /  21.9 °C 29.9in /  1011.7hPa NE 2.6mph /  4.2km/h 3.5mph /  5.6km/h 86% 0in /  0.0mm
02:44 75.9 °F /  24.4 °C 71.1 °F /  21.7 °C 29.9in /  1011.7hPa Este 2mph /  3.2km/h 3.5mph /  5.6km/h 85.1% 0in /  0.0mm
02:49 75.7 °F /  24.3 °C 71.1 °F /  21.7 °C 29.9in /  1011.7hPa Este 1.5mph /  2.4km/h 3mph /  4.8km/h 85% 0in /  0.0mm
02:54 75.7 °F /  24.3 °C 70.7 °F /  21.5 °C 29.9in /  1011.6hPa Calm   1.4mph /  2.3km/h 84.2% 0in /  0.0mm
02:59 75.7 °F /  24.3 °C 70.9 °F /  21.6 °C 29.9in /  1011.6hPa Calm   1mph /  1.6km/h 84.8% 0in /  0.0mm
03:04 75.7 °F /  24.3 °C 70.9 °F /  21.6 °C 29.9in /  1011.6hPa Calm   2.9mph /  4.7km/h 85% 0in /  0.0mm
03:09 75.7 °F /  24.3 °C 70.9 °F /  21.6 °C 29.9in /  1011.6hPa NE 0.4mph /  0.7km/h 3mph /  4.8km/h 84.7% 0in /  0.0mm
03:14 75.7 °F /  24.3 °C 70 °F /  21.1 °C 29.9in /  1011.6hPa NE 1.4mph /  2.2km/h   82.4% 0in /  0.0mm
03:19 75.6 °F /  24.2 °C 70.2 °F /  21.2 °C 29.9in /  1011.6hPa NE 1mph /  1.6km/h   83.5% 0in /  0.0mm
03:24 75.6 °F /  24.2 °C 69.8 °F /  21 °C 29.9in /  1011.4hPa Calm     82.3% 0in /  0.0mm
03:29 75.6 °F /  24.2 °C 69.3 °F /  20.7 °C 29.9in /  1011.4hPa Calm     81% 0in /  0.0mm
03:34 75.4 °F /  24.1 °C 68.5 °F /  20.3 °C 29.9in /  1011.4hPa Calm     79.3% 0in /  0.0mm
03:39 75.2 °F /  24 °C 68 °F /  20 °C 29.9in /  1011.3hPa Calm     78% 0in /  0.0mm
03:44 75.2 °F /  24 °C 67.8 °F /  19.9 °C 29.9in /  1011.3hPa Calm     78% 0in /  0.0mm
03:49 75.2 °F /  24 °C 67.8 °F /  19.9 °C 29.9in /  1011.3hPa Calm     77.8% 0in /  0.0mm
03:54 75.2 °F /  24 °C 67.6 °F /  19.8 °C 29.9in /  1011.2hPa Calm     77.4% 0in /  0.0mm
03:59 75.4 °F /  24.1 °C 67.6 °F /  19.8 °C 29.9in /  1011.2hPa Calm     76.9% 0in /  0.0mm
04:04 75 °F /  23.9 °C 64.8 °F /  18.2 °C 29.9in /  1011.2hPa Calm   4.7mph /  7.6km/h 70.4% 0in /  0.0mm
04:09 74.5 °F /  23.6 °C 59.7 °F /  15.4 °C 29.9in /  1011.1hPa Este 0.7mph /  1.1km/h 5mph /  8km/h 60.2% 0in /  0.0mm
04:14 74.3 °F /  23.5 °C 58.6 °F /  14.8 °C 29.9in /  1011.1hPa Este 2.4mph /  3.9km/h 5mph /  8km/h 57.9% 0in /  0.0mm
04:19 74.5 °F /  23.6 °C 58.3 °F /  14.6 °C 29.9in /  1011.1hPa Este 2.2mph /  3.6km/h 3.5mph /  5.6km/h 57.1% 0in /  0.0mm
04:24 74.7 °F /  23.7 °C 58.3 °F /  14.6 °C 29.9in /  1011.0hPa Este 1.8mph /  2.9km/h 1.4mph /  2.3km/h 57.1% 0in /  0.0mm
04:29 74.7 °F /  23.7 °C 58.8 °F /  14.9 °C 29.9in /  1011.0hPa Este 1.3mph /  2.1km/h 1.4mph /  2.3km/h 57.9% 0in /  0.0mm
04:34 74.8 °F /  23.8 °C 59 °F /  15 °C 29.9in /  1011.0hPa Calm   2.9mph /  4.7km/h 58% 0in /  0.0mm
04:39 74.8 °F /  23.8 °C 59.4 °F /  15.2 °C 29.9in /  1010.9hPa Calm   3mph /  4.8km/h 58.6% 0in /  0.0mm
04:44 74.8 °F /  23.8 °C 57.7 °F /  14.3 °C 29.9in /  1010.9hPa Calm   4.6mph /  7.4km/h 55.4% 0in /  0.0mm
04:49 74.7 °F /  23.7 °C 57 °F /  13.9 °C 29.9in /  1010.9hPa Este 0.6mph /  0.9km/h 5mph /  8km/h 54% 0in /  0.0mm
04:54 74.7 °F /  23.7 °C 56.7 °F /  13.7 °C 29.8in /  1010.7hPa Este 2mph /  3.2km/h 4mph /  6.4km/h 53.6% 0in /  0.0mm
04:59 74.5 °F /  23.6 °C 56.3 °F /  13.5 °C 29.8in /  1010.7hPa Este 1.8mph /  2.9km/h 3mph /  4.8km/h 53% 0in /  0.0mm
05:04 74.5 °F /  23.6 °C 56.3 °F /  13.5 °C 29.8in /  1010.7hPa Este 1.4mph /  2.2km/h   53.3% 0in /  0.0mm
05:09 74.5 °F /  23.6 °C 56.3 °F /  13.5 °C 29.8in /  1010.5hPa Este 1mph /  1.6km/h 2.3mph /  3.7km/h 53.1% 0in /  0.0mm
05:14 74.5 °F /  23.6 °C 56.7 °F /  13.7 °C 29.8in /  1010.5hPa Calm   2.3mph /  3.7km/h 54% 0in /  0.0mm
05:19 74.7 °F /  23.7 °C 56.5 °F /  13.6 °C 29.8in /  1010.5hPa Calm   3.5mph /  5.6km/h 53.4% 0in /  0.0mm
05:24 74.7 °F /  23.7 °C 57.4 °F /  14.1 °C 29.8in /  1010.4hPa Calm   3.5mph /  5.6km/h 54.7% 0in /  0.0mm
05:29 74.8 °F /  23.8 °C 58.1 °F /  14.5 °C 29.8in /  1010.4hPa Este 0.6mph /  0.9km/h 3mph /  4.8km/h 55.9% 0in /  0.0mm
05:34 74.8 °F /  23.8 °C 57.6 °F /  14.2 °C 29.8in /  1010.4hPa ENE 1.8mph /  2.9km/h 3.6mph /  5.8km/h 54.8% 0in /  0.0mm
05:39 74.7 °F /  23.7 °C 56.1 °F /  13.4 °C 29.8in /  1010.4hPa NE 1.9mph /  3km/h 4.6mph /  7.4km/h 52.3% 0in /  0.0mm
05:44 74.3 °F /  23.5 °C 55 °F /  12.8 °C 29.8in /  1010.4hPa NE 2mph /  3.2km/h 5mph /  8km/h 50.9% 0in /  0.0mm
05:49 74.1 °F /  23.4 °C 54.3 °F /  12.4 °C 29.8in /  1010.4hPa ENE 2mph /  3.2km/h 5mph /  8km/h 50.2% 0in /  0.0mm
05:54 74.1 °F /  23.4 °C 55 °F /  12.8 °C 29.8in /  1010.3hPa ENE 2mph /  3.2km/h 4.6mph /  7.4km/h 51.4% 0in /  0.0mm
05:59 74.1 °F /  23.4 °C 55.8 °F /  13.2 °C 29.8in /  1010.3hPa ENE 1.9mph /  3.1km/h 5mph /  8km/h 52.9% 0in /  0.0mm
06:04 74.1 °F /  23.4 °C 58.1 °F /  14.5 °C 29.8in /  1010.3hPa ENE 1.8mph /  2.9km/h 3.5mph /  5.6km/h 57.6% 0in /  0.0mm
06:09 74.1 °F /  23.4 °C 59.9 °F /  15.5 °C 29.8in /  1010.3hPa ENE 1.8mph /  2.9km/h 3mph /  4.8km/h 61.3% 0in /  0.0mm
06:14 74.3 °F /  23.5 °C 62.6 °F /  17 °C 29.8in /  1010.3hPa ENE 1.8mph /  2.9km/h 3.5mph /  5.6km/h 67% 0in /  0.0mm
06:19 74.1 °F /  23.4 °C 63.5 °F /  17.5 °C 29.8in /  1010.3hPa ENE 1.8mph /  2.9km/h 3mph /  4.8km/h 69.5% 0in /  0.0mm
06:24 73.9 °F /  23.3 °C 63.7 °F /  17.6 °C 29.8in /  1010.3hPa ENE 1.8mph /  2.9km/h 2.4mph /  3.9km/h 70.1% 0in /  0.0mm
06:29 73.8 °F /  23.2 °C 61.7 °F /  16.5 °C 29.8in /  1010.3hPa ENE 1.7mph /  2.7km/h 3.6mph /  5.8km/h 65.9% 0in /  0.0mm
06:34 73.6 °F /  23.1 °C 61.3 °F /  16.3 °C 29.8in /  1010.4hPa ENE 1.4mph /  2.2km/h 4mph /  6.4km/h 65.5% 0in /  0.0mm
06:39 73.6 °F /  23.1 °C 62.8 °F /  17.1 °C 29.8in /  1010.4hPa ENE 1.4mph /  2.2km/h 2.4mph /  3.9km/h 69.1% 0in /  0.0mm
06:44 73.4 °F /  23 °C 62.8 °F /  17.1 °C 29.8in /  1010.4hPa ENE 1.4mph /  2.2km/h 2.3mph /  3.7km/h 69.8% 0in /  0.0mm
06:49 73.2 °F /  22.9 °C 62.4 °F /  16.9 °C 29.8in /  1010.4hPa ENE 1mph /  1.6km/h   69.3% 0in /  0.0mm
06:54 72.9 °F /  22.7 °C 61 °F /  16.1 °C 29.8in /  1010.4hPa Calm     66% 0in /  0.0mm
06:59 72.7 °F /  22.6 °C 60.1 °F /  15.6 °C 29.8in /  1010.4hPa Calm     64.4% 0in /  0.0mm
07:04 72.7 °F /  22.6 °C 59.2 °F /  15.1 °C 29.8in /  1010.5hPa Calm     62.6% 0in /  0.0mm
07:09 72.7 °F /  22.6 °C 58.8 °F /  14.9 °C 29.8in /  1010.5hPa Calm     62% 0in /  0.0mm
07:14 72.7 °F /  22.6 °C 58.6 °F /  14.8 °C 29.8in /  1010.5hPa Calm   3.6mph /  5.8km/h 61.4% 0in /  0.0mm
07:19 72.9 °F /  22.7 °C 58.3 °F /  14.6 °C 29.8in /  1010.7hPa SE 0.4mph /  0.6km/h 4.6mph /  7.4km/h 60.4% 0in /  0.0mm
07:24 72.9 °F /  22.7 °C 58.3 °F /  14.6 °C 29.8in /  1010.7hPa SE 1.4mph /  2.2km/h 5mph /  8km/h 60% 0in /  0.0mm
07:29 73 °F /  22.8 °C 58.6 °F /  14.8 °C 29.8in /  1010.7hPa SE 1.6mph /  2.5km/h 4.6mph /  7.4km/h 60.7% 0in /  0.0mm
07:34 73.2 °F /  22.9 °C 59.4 °F /  15.2 °C 29.8in /  1010.7hPa SE 2mph /  3.2km/h 5mph /  8km/h 61.9% 0in /  0.0mm
07:39 73.2 °F /  22.9 °C 59.9 °F /  15.5 °C 29.8in /  1010.6hPa SE 2mph /  3.2km/h 4mph /  6.4km/h 62.9% 0in /  0.0mm
07:44 73.2 °F /  22.9 °C 60.4 °F /  15.8 °C 29.8in /  1010.6hPa SE 2mph /  3.2km/h 3.6mph /  5.8km/h 64.2% 0in /  0.0mm
07:49 73.4 °F /  23 °C 61.3 °F /  16.3 °C 29.8in /  1010.6hPa SE 2mph /  3.2km/h 4mph /  6.4km/h 66% 0in /  0.0mm
07:54 73.6 °F /  23.1 °C 62.2 °F /  16.8 °C 29.8in /  1010.6hPa SE 2mph /  3.2km/h 4mph /  6.4km/h 67.9% 0in /  0.0mm
07:59 73.8 °F /  23.2 °C 63 °F /  17.2 °C 29.8in /  1010.6hPa SE 1.8mph /  2.9km/h 3mph /  4.8km/h 69% 0in /  0.0mm
08:04 73.8 °F /  23.2 °C 63 °F /  17.2 °C 29.8in /  1010.7hPa SE 1.4mph /  2.2km/h 2mph /  3.2km/h 69% 0in /  0.0mm
08:09 73.9 °F /  23.3 °C 63.1 °F /  17.3 °C 29.8in /  1010.7hPa SSE 1mph /  1.6km/h 3.6mph /  5.8km/h 69% 0in /  0.0mm
08:14 74.1 °F /  23.4 °C 63 °F /  17.2 °C 29.8in /  1010.7hPa Calm   4mph /  6.4km/h 68% 0in /  0.0mm
08:19 74.5 °F /  23.6 °C 63.5 °F /  17.5 °C 29.8in /  1010.7hPa SSE 0.6mph /  0.9km/h 5mph /  8km/h 69% 0in /  0.0mm
08:24 74.7 °F /  23.7 °C 63.7 °F /  17.6 °C 29.8in /  1010.7hPa SSO 2mph /  3.2km/h 5.2mph /  8.4km/h 68.7% 0in /  0.0mm
08:29 74.8 °F /  23.8 °C 63.5 °F /  17.5 °C 29.8in /  1010.7hPa SSO 2.2mph /  3.6km/h 5.9mph /  9.5km/h 67.8% 0in /  0.0mm
08:34 75.2 °F /  24 °C 63.5 °F /  17.5 °C 29.8in /  1010.7hPa SSO 2.9mph /  4.7km/h 6.9mph /  11.1km/h 67% 0in /  0.0mm
08:39 75.4 °F /  24.1 °C 63.7 °F /  17.6 °C 29.8in /  1010.7hPa SSO 3.3mph /  5.3km/h 7mph /  11.3km/h 67% 0in /  0.0mm
08:44 75.6 °F /  24.2 °C 63.7 °F /  17.6 °C 29.8in /  1010.7hPa Sur 4.3mph /  6.9km/h 7mph /  11.3km/h 67% 0in /  0.0mm
08:49 75.7 °F /  24.3 °C 63.9 °F /  17.7 °C 29.9in /  1010.8hPa SSO 4.2mph /  6.8km/h 7.6mph /  12.2km/h 67% 0in /  0.0mm
08:54 75.7 °F /  24.3 °C 64 °F /  17.8 °C 29.9in /  1010.8hPa SO 4mph /  6.5km/h 8.1mph /  13km/h 67% 0in /  0.0mm
08:59 76.1 °F /  24.5 °C 64.4 °F /  18 °C 29.9in /  1010.8hPa SSO 3.7mph /  6km/h 6mph /  9.7km/h 67.1% 0in /  0.0mm
09:04 76.5 °F /  24.7 °C 64.6 °F /  18.1 °C 29.9in /  1010.8hPa SSO 3.1mph /  5km/h 6mph /  9.7km/h 66.7% 0in /  0.0mm
09:09 76.6 °F /  24.8 °C 64.2 °F /  17.9 °C 29.9in /  1010.8hPa SSO 3.2mph /  5.2km/h 6.2mph /  10km/h 65.7% 0in /  0.0mm
09:14 76.8 °F /  24.9 °C 64.6 °F /  18.1 °C 29.9in /  1010.8hPa SSO 3.6mph /  5.8km/h 6.2mph /  10km/h 66% 0in /  0.0mm
09:19 77 °F /  25 °C 64.4 °F /  18 °C 29.9in /  1010.9hPa SSO 3.7mph /  6km/h 6mph /  9.7km/h 65.2% 0in /  0.0mm
09:24 77.2 °F /  25.1 °C 64.4 °F /  18 °C 29.9in /  1010.9hPa SSO 4mph /  6.5km/h 6mph /  9.7km/h 64.9% 0in /  0.0mm
09:29 77.4 °F /  25.2 °C 64 °F /  17.8 °C 29.9in /  1010.9hPa Oeste 3.7mph /  6km/h 6mph /  9.7km/h 63.3% 0in /  0.0mm
09:34 77.7 °F /  25.4 °C 63.3 °F /  17.4 °C 29.9in /  1011.0hPa OSO 3.1mph /  5km/h 6.2mph /  10km/h 61.4% 0in /  0.0mm
09:39 78.1 °F /  25.6 °C 63 °F /  17.2 °C 29.9in /  1011.0hPa Oeste 3.1mph /  5km/h 6mph /  9.7km/h 60% 0in /  0.0mm
09:44 78.3 °F /  25.7 °C 63 °F /  17.2 °C 29.9in /  1011.0hPa Oeste 3.1mph /  5km/h 6mph /  9.7km/h 59.2% 0in /  0.0mm
09:49 78.4 °F /  25.8 °C 63 °F /  17.2 °C 29.9in /  1011.1hPa OSO 3.2mph /  5.2km/h 6.2mph /  10km/h 59% 0in /  0.0mm
09:54 78.8 °F /  26 °C 63.3 °F /  17.4 °C 29.9in /  1011.1hPa OSO 3.6mph /  5.8km/h 6mph /  9.7km/h 59% 0in /  0.0mm
09:59 79.2 °F /  26.2 °C 63.1 °F /  17.3 °C 29.9in /  1011.1hPa SO 3.4mph /  5.4km/h 6mph /  9.7km/h 58.1% 0in /  0.0mm
10:04 79.7 °F /  26.5 °C 63.7 °F /  17.6 °C 29.9in /  1011.2hPa SO 2.9mph /  4.7km/h 5mph /  8km/h 58% 0in /  0.0mm
10:09 80.4 °F /  26.9 °C 63.5 °F /  17.5 °C 29.9in /  1011.2hPa OSO 2.5mph /  4.1km/h 4.6mph /  7.4km/h 56.5% 0in /  0.0mm
10:14 81 °F /  27.2 °C 63.9 °F /  17.7 °C 29.9in /  1011.2hPa SSO 1.8mph /  2.9km/h 5.9mph /  9.5km/h 56.1% 0in /  0.0mm
10:19 81.3 °F /  27.4 °C 64 °F /  17.8 °C 29.9in /  1011.2hPa OSO 1.9mph /  3km/h 6mph /  9.7km/h 55.8% 0in /  0.0mm
10:24 81.7 °F /  27.6 °C 63.5 °F /  17.5 °C 29.9in /  1011.1hPa Oeste 2mph /  3.2km/h 5mph /  8km/h 54.3% 0in /  0.0mm
10:29 81.9 °F /  27.7 °C 63.7 °F /  17.6 °C 29.9in /  1011.1hPa Oeste 2mph /  3.2km/h 5mph /  8km/h 54.3% 0in /  0.0mm
10:34 82 °F /  27.8 °C 63.9 °F /  17.7 °C 29.9in /  1011.1hPa OSO 2mph /  3.2km/h 4.6mph /  7.4km/h 54.1% 0in /  0.0mm
10:39 82.8 °F /  28.2 °C 64.2 °F /  17.9 °C 29.9in /  1011.1hPa SO 1.8mph /  2.9km/h 5mph /  8km/h 53.6% 0in /  0.0mm
10:44 82.9 °F /  28.3 °C 63.9 °F /  17.7 °C 29.9in /  1011.1hPa Sur 1.4mph /  2.2km/h 5mph /  8km/h 52.5% 0in /  0.0mm
10:49 83.3 °F /  28.5 °C 63.9 °F /  17.7 °C 29.9in /  1011.1hPa SO 1.7mph /  2.7km/h 5mph /  8km/h 52% 0in /  0.0mm
10:54 83.8 °F /  28.8 °C 63.5 °F /  17.5 °C 29.9in /  1011.1hPa Este 2.4mph /  3.9km/h 5.9mph /  9.5km/h 50.4% 0in /  0.0mm
10:59 84.4 °F /  29.1 °C 63.1 °F /  17.3 °C 29.9in /  1011.1hPa Este 2.4mph /  3.9km/h 6mph /  9.7km/h 48.9% 0in /  0.0mm
11:04 84.6 °F /  29.2 °C 62.8 °F /  17.1 °C 29.9in /  1011.3hPa ENE 2.4mph /  3.9km/h 5.2mph /  8.4km/h 48% 0in /  0.0mm
11:09 84.7 °F /  29.3 °C 62.2 °F /  16.8 °C 29.9in /  1011.3hPa NE 2.5mph /  4.1km/h 5mph /  8km/h 46.7% 0in /  0.0mm
11:14 85.3 °F /  29.6 °C 61.3 °F /  16.3 °C 29.9in /  1011.3hPa Este 2.9mph /  4.7km/h 5mph /  8km/h 44.7% 0in /  0.0mm
11:19 86 °F /  30 °C 61.7 °F /  16.5 °C 29.9in /  1011.3hPa NE 2.6mph /  4.2km/h 4mph /  6.4km/h 44.1% 0in /  0.0mm
11:24 86.9 °F /  30.5 °C 62.2 °F /  16.8 °C 29.9in /  1011.2hPa NNE 1.8mph /  2.9km/h 6.4mph /  10.3km/h 44% 0in /  0.0mm
11:29 86.9 °F /  30.5 °C 62.2 °F /  16.8 °C 29.9in /  1011.2hPa NNE 2.4mph /  3.8km/h 7mph /  11.3km/h 43.6% 0in /  0.0mm
11:34 86.7 °F /  30.4 °C 62.2 °F /  16.8 °C 29.9in /  1011.2hPa ENE 3.6mph /  5.8km/h 6.2mph /  10km/h 43.9% 0in /  0.0mm
11:39 86.9 °F /  30.5 °C 62.2 °F /  16.8 °C 29.9in /  1011.2hPa ENE 3.6mph /  5.8km/h 6mph /  9.7km/h 43.9% 0in /  0.0mm
11:44 87.3 °F /  30.7 °C 62.2 °F /  16.8 °C 29.9in /  1011.2hPa NE 3.6mph /  5.8km/h 6.2mph /  10km/h 43.2% 0in /  0.0mm
11:49 87.4 °F /  30.8 °C 62.1 °F /  16.7 °C 29.9in /  1011.2hPa NNE 3.7mph /  6km/h 7.4mph /  11.9km/h 42.7% 0in /  0.0mm
11:54 87.4 °F /  30.8 °C 61.5 °F /  16.4 °C 29.9in /  1011.1hPa NE 4mph /  6.5km/h 8.1mph /  13km/h 41.9% 0in /  0.0mm
11:59 87.8 °F /  31 °C 60.6 °F /  15.9 °C 29.9in /  1011.1hPa NE 4.2mph /  6.8km/h 10.4mph /  16.7km/h 40.2% 0in /  0.0mm
12:04 88.2 °F /  31.2 °C 60.8 °F /  16 °C 29.9in /  1011.1hPa NNE 4.7mph /  7.6km/h 10mph /  16.1km/h 40.1% 0in /  0.0mm
12:09 88.3 °F /  31.3 °C 61.2 °F /  16.2 °C 29.9in /  1011.1hPa NNE 4.8mph /  7.8km/h 9.2mph /  14.8km/h 40.3% 0in /  0.0mm
12:14 88.7 °F /  31.5 °C 61 °F /  16.1 °C 29.9in /  1011.1hPa NNE 5.2mph /  8.4km/h 11.4mph /  18.3km/h 39.6% 0in /  0.0mm
12:19 89.1 °F /  31.7 °C 61 °F /  16.1 °C 29.9in /  1011.1hPa NNE 5.3mph /  8.5km/h 12mph /  19.3km/h 39.3% 0in /  0.0mm
12:24 89.2 °F /  31.8 °C 61.2 °F /  16.2 °C 29.9in /  1010.9hPa NNE 5.4mph /  8.7km/h 12mph /  19.3km/h 39% 0in /  0.0mm
12:29 89.4 °F /  31.9 °C 61 °F /  16.1 °C 29.9in /  1010.9hPa NNE 5.7mph /  9.2km/h 10.4mph /  16.7km/h 38.6% 0in /  0.0mm
12:34 89.8 °F /  32.1 °C 61.5 °F /  16.4 °C 29.9in /  1010.9hPa NE 6.4mph /  10.3km/h 10mph /  16.1km/h 38.9% 0in /  0.0mm
12:39 90 °F /  32.2 °C 61.2 °F /  16.2 °C 29.9in /  1010.8hPa NNE 6.3mph /  10.2km/h 10.4mph /  16.7km/h 38.3% 0in /  0.0mm
12:44 90.1 °F /  32.3 °C 61.9 °F /  16.6 °C 29.9in /  1010.8hPa NE 6.2mph /  10km/h 10mph /  16.1km/h 39% 0in /  0.0mm
12:49 90.9 °F /  32.7 °C 63.1 °F /  17.3 °C 29.9in /  1010.8hPa NE 5.8mph /  9.3km/h 10mph /  16.1km/h 40% 0in /  0.0mm
12:54 91.8 °F /  33.2 °C 64 °F /  17.8 °C 29.8in /  1010.7hPa NE 4.7mph /  7.6km/h 9.7mph /  15.6km/h 40% 0in /  0.0mm
12:59 92.1 °F /  33.4 °C 64.8 °F /  18.2 °C 29.8in /  1010.7hPa NNE 4.9mph /  7.9km/h 10.4mph /  16.7km/h 40.6% 0in /  0.0mm
13:04 92.1 °F /  33.4 °C 64.6 °F /  18.1 °C 29.8in /  1010.7hPa NNE 5.4mph /  8.7km/h 10.7mph /  17.2km/h 40.5% 0in /  0.0mm
13:09 92.1 °F /  33.4 °C 64.4 °F /  18 °C 29.8in /  1010.5hPa NE 5.6mph /  9km/h 11.5mph /  18.5km/h 40% 0in /  0.0mm
13:14 92.1 °F /  33.4 °C 64.4 °F /  18 °C 29.8in /  1010.5hPa NNE 5.9mph /  9.5km/h 12mph /  19.3km/h 40% 0in /  0.0mm
13:19 92.5 °F /  33.6 °C 64.6 °F /  18.1 °C 29.8in /  1010.5hPa NE 5.9mph /  9.5km/h 12.7mph /  20.4km/h 39.8% 0in /  0.0mm
13:24 92.7 °F /  33.7 °C 64.2 °F /  17.9 °C 29.8in /  1010.4hPa NNE 5.9mph /  9.5km/h 13mph /  20.9km/h 39.1% 0in /  0.0mm
13:29 93.2 °F /  34 °C 64.8 °F /  18.2 °C 29.8in /  1010.4hPa NNE 6mph /  9.6km/h 13mph /  20.9km/h 39.2% 0in /  0.0mm
13:34 93.6 °F /  34.2 °C 65.5 °F /  18.6 °C 29.8in /  1010.4hPa NNE 6.2mph /  10km/h 13mph /  20.9km/h 39.8% 0in /  0.0mm
13:39 93.7 °F /  34.3 °C 65.8 °F /  18.8 °C 29.8in /  1010.2hPa NNE 6.5mph /  10.5km/h 14mph /  22.5km/h 39.9% 0in /  0.0mm
13:40 93.9 °F /  34.4 °C 65.8 °F /  18.8 °C 29.8in /  1010.2hPa NNE 7.3mph /  11.8km/h 14mph /  22.5km/h 40% 0in /  0.0mm
14:14 96.3 °F /  35.7 °C 64.2 °F /  17.9 °C 29.8in /  1009.9hPa SE 6.9mph /  11.1km/h 14mph /  22.5km/h 35% 0in /  0.0mm
14:19 96.3 °F /  35.7 °C 64.2 °F /  17.9 °C 29.8in /  1010.2hPa ESE 7.1mph /  11.5km/h 17.3mph /  27.8km/h 35.2% 0in /  0.0mm
14:24 96.1 °F /  35.6 °C 64.9 °F /  18.3 °C 29.8in /  1009.8hPa ESE 8.1mph /  13km/h 17mph /  27.4km/h 36.2% 0in /  0.0mm
14:29 96.3 °F /  35.7 °C 65.1 °F /  18.4 °C 29.8in /  1009.8hPa ESE 8.2mph /  13.2km/h 16.3mph /  26.2km/h 36.1% 0in /  0.0mm
14:34 95.9 °F /  35.5 °C 64 °F /  17.8 °C 29.8in /  1009.8hPa ESE 8.7mph /  14km/h 17.5mph /  28.2km/h 35.2% 0in /  0.0mm
14:39 95.7 °F /  35.4 °C 63.7 °F /  17.6 °C 29.8in /  1009.7hPa ESE 9.1mph /  14.7km/h 17mph /  27.4km/h 35% 0in /  0.0mm
14:44 96.1 °F /  35.6 °C 63 °F /  17.2 °C 29.8in /  1009.7hPa ESE 10.7mph /  17.2km/h 18.4mph /  29.6km/h 33.9% 0in /  0.0mm
14:49 96.1 °F /  35.6 °C 61.2 °F /  16.2 °C 29.8in /  1009.7hPa ESE 10.7mph /  17.2km/h 18.4mph /  29.6km/h 31.6% 0in /  0.0mm
14:54 96.1 °F /  35.6 °C 60.1 °F /  15.6 °C 29.8in /  1009.6hPa SE 10.7mph /  17.2km/h 18.5mph /  29.8km/h 30.4% 0in /  0.0mm
14:59 96.3 °F /  35.7 °C 60.6 °F /  15.9 °C 29.8in /  1009.6hPa SE 10.6mph /  17km/h 20.7mph /  33.3km/h 31% 0in /  0.0mm
15:04 96.4 °F /  35.8 °C 61.2 °F /  16.2 °C 29.8in /  1009.6hPa ESE 10.2mph /  16.4km/h 21mph /  33.8km/h 31.3% 0in /  0.0mm
15:09 96.3 °F /  35.7 °C 61.5 °F /  16.4 °C 29.8in /  1009.5hPa SE 10.1mph /  16.2km/h 18.4mph /  29.6km/h 31.7% 0in /  0.0mm
15:14 96.3 °F /  35.7 °C 61 °F /  16.1 °C 29.8in /  1009.5hPa ESE 9.7mph /  15.6km/h 18.5mph /  29.8km/h 31.4% 0in /  0.0mm
15:19 96.3 °F /  35.7 °C 61 °F /  16.1 °C 29.8in /  1009.6hPa SE 9.7mph /  15.6km/h 19mph /  30.6km/h 31.3% 0in /  0.0mm
15:24 96.4 °F /  35.8 °C 61 °F /  16.1 °C 29.8in /  1009.6hPa SE 9.7mph /  15.6km/h 16.1mph /  25.9km/h 31% 0in /  0.0mm
15:29 96.4 °F /  35.8 °C 61 °F /  16.1 °C 29.8in /  1009.6hPa SE 9.6mph /  15.4km/h 15mph /  24.1km/h 31.1% 0in /  0.0mm
15:34 96.8 °F /  36 °C 61.9 °F /  16.6 °C 29.8in /  1009.6hPa ESE 9.2mph /  14.8km/h 17.3mph /  27.8km/h 31.9% 0in /  0.0mm
15:39 96.8 °F /  36 °C 63.5 °F /  17.5 °C 29.8in /  1009.5hPa ESE 9.1mph /  14.6km/h 17mph /  27.4km/h 33.7% 0in /  0.0mm
15:44 96.6 °F /  35.9 °C 64.8 °F /  18.2 °C 29.8in /  1009.5hPa ESE 8.5mph /  13.7km/h 17.8mph /  28.6km/h 35.4% 0in /  0.0mm
15:49 96.3 °F /  35.7 °C 66.2 °F /  19 °C 29.8in /  1009.5hPa ESE 8.9mph /  14.3km/h 18.4mph /  29.6km/h 37.5% 0in /  0.0mm
15:54 96.1 °F /  35.6 °C 66.2 °F /  19 °C 29.8in /  1009.2hPa ESE 10.2mph /  16.4km/h 18mph /  29km/h 37.9% 0in /  0.0mm
15:59 96.1 °F /  35.6 °C 67.8 °F /  19.9 °C 29.8in /  1009.2hPa ESE 10.1mph /  16.2km/h 16.1mph /  25.9km/h 39.8% 0in /  0.0mm
16:04 96.1 °F /  35.6 °C 67.6 °F /  19.8 °C 29.8in /  1009.2hPa ESE 9.7mph /  15.6km/h 17.5mph /  28.2km/h 39.6% 0in /  0.0mm
16:09 96.1 °F /  35.6 °C 68.7 °F /  20.4 °C 29.8in /  1009.1hPa ESE 9.8mph /  15.8km/h 19mph /  30.6km/h 41.1% 0in /  0.0mm
16:14 96.3 °F /  35.7 °C 69.3 °F /  20.7 °C 29.8in /  1009.1hPa ESE 10.2mph /  16.4km/h 19mph /  30.6km/h 41.9% 0in /  0.0mm
16:19 96.3 °F /  35.7 °C 69.3 °F /  20.7 °C 29.8in /  1009.1hPa ESE 10.1mph /  16.3km/h 16.3mph /  26.2km/h 41.8% 0in /  0.0mm
16:24 96.1 °F /  35.6 °C 69.3 °F /  20.7 °C 29.8in /  1008.9hPa ESE 10mph /  16.1km/h 18.4mph /  29.6km/h 42% 0in /  0.0mm
16:29 96.3 °F /  35.7 °C 68.9 °F /  20.5 °C 29.8in /  1008.9hPa ESE 10.1mph /  16.2km/h 18.4mph /  29.6km/h 41.3% 0in /  0.0mm
16:34 96.3 °F /  35.7 °C 68.2 °F /  20.1 °C 29.8in /  1008.9hPa ESE 10.2mph /  16.4km/h 18mph /  29km/h 40.3% 0in /  0.0mm
16:39 96.4 °F /  35.8 °C 68.9 °F /  20.5 °C 29.8in /  1008.9hPa SE 10.3mph /  16.6km/h 18.4mph /  29.6km/h 40.9% 0in /  0.0mm
16:44 96.4 °F /  35.8 °C 67.8 °F /  19.9 °C 29.8in /  1008.9hPa SE 10.7mph /  17.2km/h 20.7mph /  33.3km/h 39.6% 0in /  0.0mm
16:49 96.4 °F /  35.8 °C 67.3 °F /  19.6 °C 29.8in /  1008.9hPa ESE 10.8mph /  17.4km/h 21mph /  33.8km/h 38.6% 0in /  0.0mm
16:54 96.8 °F /  36 °C 67.5 °F /  19.7 °C 29.8in /  1008.7hPa Este 11.2mph /  18km/h 21mph /  33.8km/h 38.7% 0in /  0.0mm
16:59 97.2 °F /  36.2 °C 66.4 °F /  19.1 °C 29.8in /  1008.7hPa ESE 10.5mph /  16.9km/h 16mph /  25.7km/h 36.8% 0in /  0.0mm
17:04 97.2 °F /  36.2 °C 65.7 °F /  18.7 °C 29.8in /  1008.7hPa ESE 8.5mph /  13.7km/h 14mph /  22.5km/h 35.7% 0in /  0.0mm
17:09 97.3 °F /  36.3 °C 64.9 °F /  18.3 °C 29.8in /  1008.7hPa SE 8.3mph /  13.3km/h 18.4mph /  29.6km/h 34.8% 0in /  0.0mm
17:14 97.5 °F /  36.4 °C 64.2 °F /  17.9 °C 29.8in /  1008.7hPa ESE 7.6mph /  12.2km/h 18mph /  29km/h 33.7% 0in /  0.0mm
17:19 97.7 °F /  36.5 °C 63.1 °F /  17.3 °C 29.8in /  1008.7hPa ESE 8.1mph /  13km/h 17.3mph /  27.8km/h 32.3% 0in /  0.0mm
17:24 97.9 °F /  36.6 °C 63.1 °F /  17.3 °C 29.8in /  1008.5hPa ESE 9.7mph /  15.6km/h 16.1mph /  25.9km/h 32.1% 0in /  0.0mm
17:29 98.1 °F /  36.7 °C 62.8 °F /  17.1 °C 29.8in /  1008.5hPa SE 9.6mph /  15.4km/h 14mph /  22.5km/h 31.6% 0in /  0.0mm
17:34 98.2 °F /  36.8 °C 62.2 °F /  16.8 °C 29.8in /  1008.5hPa SE 9.2mph /  14.8km/h 14.7mph /  23.7km/h 30.7% 0in /  0.0mm
17:39 98.4 °F /  36.9 °C 61.5 °F /  16.4 °C 29.8in /  1008.4hPa ESE 9.2mph /  14.8km/h 15.2mph /  24.5km/h 29.9% 0in /  0.0mm
17:44 98.4 °F /  36.9 °C 61.2 °F /  16.2 °C 29.8in /  1008.4hPa SE 9.2mph /  14.8km/h 15mph /  24.1km/h 29.5% 0in /  0.0mm
17:49 98.6 °F /  37 °C 60.8 °F /  16 °C 29.8in /  1008.4hPa ESE 9.1mph /  14.6km/h 16.3mph /  26.2km/h 29% 0in /  0.0mm
17:54 98.4 °F /  36.9 °C 60.4 °F /  15.8 °C 29.8in /  1008.3hPa SE 8.7mph /  14km/h 16.1mph /  25.9km/h 28.6% 0in /  0.0mm
17:59 98.4 °F /  36.9 °C 59.9 °F /  15.5 °C 29.8in /  1008.3hPa SE 8.8mph /  14.2km/h 15mph /  24.1km/h 28.2% 0in /  0.0mm
18:04 98.6 °F /  37 °C 59.7 °F /  15.4 °C 29.8in /  1008.3hPa ESE 9.2mph /  14.8km/h 17.3mph /  27.8km/h 28% 0in /  0.0mm
18:09 98.4 °F /  36.9 °C 59 °F /  15 °C 29.8in /  1008.3hPa ESE 9.2mph /  14.8km/h 17.3mph /  27.8km/h 27.2% 0in /  0.0mm
18:14 98.4 °F /  36.9 °C 57.7 °F /  14.3 °C 29.8in /  1008.3hPa Este 9.2mph /  14.8km/h 15mph /  24.1km/h 26.1% 0in /  0.0mm
18:19 98.6 °F /  37 °C 57.6 °F /  14.2 °C 29.8in /  1008.3hPa SE 8.9mph /  14.4km/h 14mph /  22.5km/h 25.8% 0in /  0.0mm
18:24 99 °F /  37.2 °C 56.8 °F /  13.8 °C 29.8in /  1008.2hPa SE 8.1mph /  13km/h 16.1mph /  25.9km/h 25% 0in /  0.0mm
18:29 99 °F /  37.2 °C 56.1 °F /  13.4 °C 29.8in /  1008.2hPa ESE 8.2mph /  13.2km/h 16mph /  25.7km/h 24.2% 0in /  0.0mm
18:34 98.8 °F /  37.1 °C 55.8 °F /  13.2 °C 29.8in /  1008.2hPa ESE 8.5mph /  13.7km/h 17.5mph /  28.2km/h 24.1% 0in /  0.0mm
18:39 98.4 °F /  36.9 °C 55.2 °F /  12.9 °C 29.8in /  1008.2hPa ESE 8.9mph /  14.4km/h 17mph /  27.4km/h 23.9% 0in /  0.0mm
18:44 98.4 °F /  36.9 °C 54.3 °F /  12.4 °C 29.8in /  1008.2hPa ESE 10.7mph /  17.2km/h 16.1mph /  25.9km/h 23% 0in /  0.0mm
18:49 98.4 °F /  36.9 °C 54.1 °F /  12.3 °C 29.8in /  1008.2hPa ESE 10.4mph /  16.8km/h 15.2mph /  24.5km/h 23% 0in /  0.0mm
18:54 98.4 °F /  36.9 °C 53.6 °F /  12 °C 29.8in /  1008.1hPa SE 9.7mph /  15.6km/h 18.4mph /  29.6km/h 22.5% 0in /  0.0mm
18:59 98.4 °F /  36.9 °C 53.1 °F /  11.7 °C 29.8in /  1008.1hPa SE 9.8mph /  15.8km/h 20.7mph /  33.3km/h 22% 0in /  0.0mm
19:04 98.2 °F /  36.8 °C 52.3 °F /  11.3 °C 29.8in /  1008.1hPa SE 10.2mph /  16.4km/h 21mph /  33.8km/h 21.6% 0in /  0.0mm
19:09 98.2 °F /  36.8 °C 52.9 °F /  11.6 °C 29.8in /  1008.0hPa ESE 10.1mph /  16.2km/h 16.1mph /  25.9km/h 22% 0in /  0.0mm
19:14 98.1 °F /  36.7 °C 52.7 °F /  11.5 °C 29.8in /  1008.0hPa ESE 9.7mph /  15.6km/h 16.1mph /  25.9km/h 22% 0in /  0.0mm
19:19 97.9 °F /  36.6 °C 52.5 °F /  11.4 °C 29.8in /  1008.0hPa SE 9.4mph /  15.2km/h 16mph /  25.7km/h 22% 0in /  0.0mm
19:24 97.9 °F /  36.6 °C 55.2 °F /  12.9 °C 29.8in /  1008.0hPa SE 8.5mph /  13.7km/h 13mph /  20.9km/h 24.3% 0in /  0.0mm
19:29 97.5 °F /  36.4 °C 56.8 °F /  13.8 °C 29.8in /  1008.0hPa SE 8.3mph /  13.3km/h 14mph /  22.5km/h 26% 0in /  0.0mm
19:34 97.3 °F /  36.3 °C 56.8 °F /  13.8 °C 29.8in /  1008.1hPa SE 7.4mph /  11.9km/h 14mph /  22.5km/h 26.2% 0in /  0.0mm
19:39 97 °F /  36.1 °C 56.3 °F /  13.5 °C 29.8in /  1008.1hPa SE 7.3mph /  11.7km/h 14mph /  22.5km/h 26% 0in /  0.0mm
19:44 96.6 °F /  35.9 °C 56.1 °F /  13.4 °C 29.8in /  1008.1hPa SE 6.9mph /  11.1km/h 13.5mph /  21.7km/h 26% 0in /  0.0mm
19:49 96.4 °F /  35.8 °C 56.8 °F /  13.8 °C 29.8in /  1008.2hPa SE 6.8mph /  10.9km/h 14mph /  22.5km/h 26.8% 0in /  0.0mm
19:54 96.3 °F /  35.7 °C 55.8 °F /  13.2 °C 29.8in /  1008.2hPa SE 6.4mph /  10.3km/h 11.5mph /  18.5km/h 26% 0in /  0.0mm
19:59 96.1 °F /  35.6 °C 55.8 °F /  13.2 °C 29.8in /  1008.2hPa SE 6mph /  9.6km/h 12mph /  19.3km/h 26% 0in /  0.0mm
20:04 95.9 °F /  35.5 °C 55.8 °F /  13.2 °C 29.8in /  1008.4hPa SSE 4.7mph /  7.6km/h 8mph /  12.9km/h 26.2% 0in /  0.0mm
20:09 95.7 °F /  35.4 °C 55.4 °F /  13 °C 29.8in /  1008.4hPa SSE 4.5mph /  7.3km/h 7.4mph /  11.9km/h 26.1% 0in /  0.0mm
20:14 95.5 °F /  35.3 °C 55.2 °F /  12.9 °C 29.8in /  1008.4hPa SE 4mph /  6.5km/h 8.5mph /  13.7km/h 26% 0in /  0.0mm
20:19 95.5 °F /  35.3 °C 56.1 °F /  13.4 °C 29.8in /  1008.5hPa SSE 4.1mph /  6.6km/h 9.2mph /  14.8km/h 26.9% 0in /  0.0mm
20:24 95.4 °F /  35.2 °C 55.9 °F /  13.3 °C 29.8in /  1008.5hPa ESE 4.3mph /  6.9km/h 9mph /  14.5km/h 27% 0in /  0.0mm
20:29 95.2 °F /  35.1 °C 55.9 °F /  13.3 °C 29.8in /  1008.5hPa ESE 4.4mph /  7.1km/h 9.2mph /  14.8km/h 27.1% 0in /  0.0mm
20:34 94.8 °F /  34.9 °C 56.7 °F /  13.7 °C 29.8in /  1008.5hPa ENE 4.7mph /  7.6km/h 9mph /  14.5km/h 28% 0in /  0.0mm
20:39 94.6 °F /  34.8 °C 57 °F /  13.9 °C 29.8in /  1008.4hPa NNO 4.1mph /  6.6km/h 5mph /  8km/h 28.6% 0in /  0.0mm
20:44 94.3 °F /  34.6 °C 61.2 °F /  16.2 °C 29.8in /  1008.4hPa North 2mph /  3.2km/h 10.4mph /  16.7km/h 33.5% 0in /  0.0mm
20:49 92.7 °F /  33.7 °C 61.5 °F /  16.4 °C 29.8in /  1008.5hPa NE 2.9mph /  4.7km/h 12.7mph /  20.4km/h 35.6% 0in /  0.0mm
20:54 91.4 °F /  33 °C 61 °F /  16.1 °C 29.8in /  1008.5hPa NE 5.9mph /  9.5km/h 13mph /  20.9km/h 36.4% 0in /  0.0mm
20:59 90.7 °F /  32.6 °C 60.4 °F /  15.8 °C 29.8in /  1008.5hPa NE 6.2mph /  9.9km/h 13mph /  20.9km/h 36.5% 0in /  0.0mm
21:04 90.1 °F /  32.3 °C 60.4 °F /  15.8 °C 29.8in /  1008.7hPa NE 6.9mph /  11.1km/h 13.8mph /  22.2km/h 36.9% 0in /  0.0mm
21:09 89.8 °F /  32.1 °C 60.8 °F /  16 °C 29.8in /  1008.7hPa NE 7.1mph /  11.4km/h 14mph /  22.5km/h 38% 0in /  0.0mm
21:14 89.2 °F /  31.8 °C 60.8 °F /  16 °C 29.8in /  1008.7hPa NNE 7.6mph /  12.2km/h 13mph /  20.9km/h 38.7% 0in /  0.0mm
21:19 89.1 °F /  31.7 °C 61.5 °F /  16.4 °C 29.8in /  1008.8hPa NNE 7.3mph /  11.8km/h 12mph /  19.3km/h 39.9% 0in /  0.0mm
21:24 88.3 °F /  31.3 °C 62.1 °F /  16.7 °C 29.8in /  1008.8hPa NE 6.2mph /  10km/h 10mph /  16.1km/h 41.6% 0in /  0.0mm
21:29 87.8 °F /  31 °C 63 °F /  17.2 °C 29.8in /  1008.8hPa NNE 6.2mph /  10km/h 11.5mph /  18.5km/h 43.8% 0in /  0.0mm
21:34 86.9 °F /  30.5 °C 64 °F /  17.8 °C 29.8in /  1008.9hPa NNE 6.4mph /  10.3km/h 13.8mph /  22.2km/h 46.8% 0in /  0.0mm
21:39 86 °F /  30 °C 64.8 °F /  18.2 °C 29.8in /  1008.9hPa NNE 6.8mph /  10.9km/h 14mph /  22.5km/h 49% 0in /  0.0mm
21:44 85.5 °F /  29.7 °C 65.3 °F /  18.5 °C 29.8in /  1008.9hPa NE 8.1mph /  13km/h 12mph /  19.3km/h 50.9% 0in /  0.0mm
21:49 85.1 °F /  29.5 °C 65.5 °F /  18.6 °C 29.8in /  1009.2hPa NE 8mph /  12.8km/h 13mph /  20.9km/h 52% 0in /  0.0mm
21:54 84.7 °F /  29.3 °C 65.7 °F /  18.7 °C 29.8in /  1009.2hPa NNE 7.6mph /  12.2km/h 13.8mph /  22.2km/h 52.8% 0in /  0.0mm
21:59 84.4 °F /  29.1 °C 65.8 °F /  18.8 °C 29.8in /  1009.2hPa NE 7.8mph /  12.6km/h 14mph /  22.5km/h 54.1% 0in /  0.0mm
22:04 83.8 °F /  28.8 °C 66 °F /  18.9 °C 29.8in /  1009.5hPa NE 8.5mph /  13.7km/h 13mph /  20.9km/h 55% 0in /  0.0mm
22:09 83.8 °F /  28.8 °C 66 °F /  18.9 °C 29.8in /  1009.5hPa NNE 8.3mph /  13.3km/h 13mph /  20.9km/h 55.3% 0in /  0.0mm
22:14 83.7 °F /  28.7 °C 66.4 °F /  19.1 °C 29.8in /  1009.5hPa NNE 7.4mph /  11.9km/h 13mph /  20.9km/h 56% 0in /  0.0mm
22:19 83.7 °F /  28.7 °C 66.2 °F /  19 °C 29.8in /  1009.7hPa NE 7.5mph /  12km/h 12.3mph /  19.8km/h 56.1% 0in /  0.0mm
22:24 83.3 °F /  28.5 °C 66.6 °F /  19.2 °C 29.8in /  1009.7hPa NNE 7.6mph /  12.2km/h 13mph /  20.9km/h 57% 0in /  0.0mm
22:29 83.1 °F /  28.4 °C 66.6 °F /  19.2 °C 29.8in /  1009.7hPa NNE 7.6mph /  12.2km/h 13mph /  20.9km/h 57.7% 0in /  0.0mm
22:34 82.9 °F /  28.3 °C 66.6 °F /  19.2 °C 29.8in /  1010.0hPa NE 7.6mph /  12.2km/h 13mph /  20.9km/h 58% 0in /  0.0mm
22:39 82.8 °F /  28.2 °C 66.6 °F /  19.2 °C 29.8in /  1010.0hPa NE 7.6mph /  12.2km/h 13mph /  20.9km/h 58% 0in /  0.0mm
22:44 82.6 °F /  28.1 °C 67.1 °F /  19.5 °C 29.8in /  1010.0hPa NNE 7.6mph /  12.2km/h 12mph /  19.3km/h 59.5% 0in /  0.0mm
22:49 82.4 °F /  28 °C 67.6 °F /  19.8 °C 29.8in /  1010.3hPa NE 7.6mph /  12.2km/h 12.7mph /  20.4km/h 61.1% 0in /  0.0mm
22:54 82.2 °F /  27.9 °C 68.2 °F /  20.1 °C 29.8in /  1010.3hPa NNE 7.4mph /  11.9km/h 13mph /  20.9km/h 62.5% 0in /  0.0mm
22:59 82 °F /  27.8 °C 68.7 °F /  20.4 °C 29.8in /  1010.3hPa NE 7.4mph /  11.9km/h 13mph /  20.9km/h 64.1% 0in /  0.0mm
23:04 82 °F /  27.8 °C 69.6 °F /  20.9 °C 29.8in /  1010.3hPa NE 7.4mph /  11.9km/h 12mph /  19.3km/h 66.1% 0in /  0.0mm
23:09 81.9 °F /  27.7 °C 69.8 °F /  21 °C 29.8in /  1010.3hPa NNE 7.4mph /  11.9km/h 12mph /  19.3km/h 67.3% 0in /  0.0mm
23:14 81.7 °F /  27.6 °C 70.3 °F /  21.3 °C 29.8in /  1010.3hPa NNE 7.4mph /  11.9km/h 12mph /  19.3km/h 68.5% 0in /  0.0mm
23:19 81.7 °F /  27.6 °C 70.7 °F /  21.5 °C 29.8in /  1010.4hPa NNE 7.1mph /  11.4km/h 9.2mph /  14.8km/h 69.8% 0in /  0.0mm
23:24 81.3 °F /  27.4 °C 71.1 °F /  21.7 °C 29.8in /  1010.4hPa NNE 5.9mph /  9.5km/h 11.2mph /  18km/h 70.9% 0in /  0.0mm
23:29 81.3 °F /  27.4 °C 71.6 °F /  22 °C 29.8in /  1010.4hPa NNE 6mph /  9.7km/h 12mph /  19.3km/h 72.5% 0in /  0.0mm
23:34 81.1 °F /  27.3 °C 72 °F /  22.2 °C 29.8in /  1010.6hPa NNE 6.4mph /  10.3km/h 10.7mph /  17.2km/h 73.6% 0in /  0.0mm
23:39 81 °F /  27.2 °C 72.1 °F /  22.3 °C 29.8in /  1010.6hPa NNE 6.3mph /  10.2km/h 11mph /  17.7km/h 74.6% 0in /  0.0mm
23:44 81 °F /  27.2 °C 72.1 °F /  22.3 °C 29.8in /  1010.6hPa NNE 6.2mph /  10km/h 10.4mph /  16.7km/h 75% 0in /  0.0mm
23:49 80.8 °F /  27.1 °C 72.3 °F /  22.4 °C 29.8in /  1010.6hPa NE 6.2mph /  9.9km/h 10.2mph /  16.4km/h 75.7% 0in /  0.0mm
23:54 80.4 °F /  26.9 °C 72.3 °F /  22.4 °C 29.8in /  1010.5hPa NNE 5.9mph /  9.5km/h 10.4mph /  16.7km/h 76.2% 0in /  0.0mm
23:59 80.4 °F /  26.9 °C 72.5 °F /  22.5 °C 29.8in /  1010.5hPa NNE 5.9mph /  9.5km/h 9.2mph /  14.8km/h 77% 0in /  0.0mm
Murcia-Puente Tocinos, España
Compliments of Weather Underground - 3 mb

La estación de MeteoMurcia.com, publica sus datos en los siguientes proyectos:

Weather Underground PWS IMURCIAP2 Meteoclimatic www.awekas.at

W3Counter
Web Analytics